aviador You're here:

YEML Decoded Metar

in
Report Time2018-02-18 17:00:00
UTC Time2018-02-18 17:54:08
Flight Rules vfr VFR
Wind060° at 08 kt
W.Decomp.*RWY 06: 8.0 kt HW -0 kt LCW
RWY 15: 8 kt LCW
W.Rank060° ranks 5
Current wind is above 060° avg. (7.4)
Visibility9999 m
Phenomena:N/A
Clouds:N/A
Expected CloudBase > 1,200 ft AGL from Temp-Dew spread
CeilingNone
Temp25°C
Dew Point22°C (83% RH)
QNH1008 hPa
Raw Report
METAR YEML 181700Z AUTO 06008KT 9999 // NCD 25/22 Q1008=

Extra information for YEML:More info

Social comments